Terminal Aerodrome Forecast
Issued by NWS

Home | Current Version | Previous Version | Graphics & Text | Print | Product List | Glossary On
Versions: 1 2 3 4 5 6 7 8 9 10 11 12 13 14 15 16 17 18 19 20 21 22 23 24 25
000
FTUS43 KGRB 221500 AAB
TAFAUW
TAF AMD
KAUW 221556Z 2216/2312 14005KT 6SM HZ OVC006
     FM221800 13005KT 6SM HZ OVC010
     FM222200 11004KT 6SM HZ BKN015 BKN030
     FM230200 VRB03KT 4SM BR BKN015
     FM230400 VRB03KT 1SM BR OVC007
     FM230700 VRB03KT 3/4SM BR OVC005=

USA.gov is the U.S. government's official web portal to all federal, state and local government web resources and services.